sensor_id;sensor_type;location;lat;lon;timestamp;P1;durP1;ratioP1;P2;durP2;ratioP2
13959;SDS011;7052;51.050;3.716;2023-07-20T00:00:13;12.10;;;6.40;;
13959;SDS011;7052;51.050;3.716;2023-07-20T00:02:41;12.52;;;6.70;;
13959;SDS011;7052;51.050;3.716;2023-07-20T00:05:09;11.70;;;6.60;;
13959;SDS011;7052;51.050;3.716;2023-07-20T00:07:36;8.80;;;6.63;;
13959;SDS011;7052;51.050;3.716;2023-07-20T00:10:04;11.30;;;6.63;;
13959;SDS011;7052;51.050;3.716;2023-07-20T00:12:32;8.93;;;6.07;;
13959;SDS011;7052;51.050;3.716;2023-07-20T00:14:59;9.50;;;6.50;;
13959;SDS011;7052;51.050;3.716;2023-07-20T00:17:26;7.82;;;6.82;;
13959;SDS011;7052;51.050;3.716;2023-07-20T00:19:54;11.93;;;6.60;;
13959;SDS011;7052;51.050;3.716;2023-07-20T00:22:24;11.57;;;6.60;;
13959;SDS011;7052;51.050;3.716;2023-07-20T00:24:51;12.45;;;7.30;;
13959;SDS011;7052;51.050;3.716;2023-07-20T00:27:18;11.20;;;7.43;;
13959;SDS011;7052;51.050;3.716;2023-07-20T00:29:45;11.65;;;6.95;;
13959;SDS011;7052;51.050;3.716;2023-07-20T00:32:12;14.80;;;7.30;;
13959;SDS011;7052;51.050;3.716;2023-07-20T00:34:39;11.32;;;7.20;;
13959;SDS011;7052;51.050;3.716;2023-07-20T00:37:06;11.80;;;7.30;;
13959;SDS011;7052;51.050;3.716;2023-07-20T00:39:35;11.23;;;7.35;;
13959;SDS011;7052;51.050;3.716;2023-07-20T00:42:09;13.48;;;7.15;;
13959;SDS011;7052;51.050;3.716;2023-07-20T00:44:36;14.07;;;7.22;;
13959;SDS011;7052;51.050;3.716;2023-07-20T00:47:05;13.77;;;6.88;;
13959;SDS011;7052;51.050;3.716;2023-07-20T00:49:33;14.20;;;7.88;;
13959;SDS011;7052;51.050;3.716;2023-07-20T00:52:00;13.15;;;8.15;;
13959;SDS011;7052;51.050;3.716;2023-07-20T00:54:29;10.35;;;7.35;;
13959;SDS011;7052;51.050;3.716;2023-07-20T00:56:59;12.20;;;7.85;;
13959;SDS011;7052;51.050;3.716;2023-07-20T00:59:28;10.65;;;7.82;;
13959;SDS011;7052;51.050;3.716;2023-07-20T01:02:03;13.02;;;8.35;;
13959;SDS011;7052;51.050;3.716;2023-07-20T01:04:30;12.38;;;8.20;;
13959;SDS011;7052;51.050;3.716;2023-07-20T01:06:58;13.15;;;8.05;;
13959;SDS011;7052;51.050;3.716;2023-07-20T01:09:31;15.55;;;8.00;;
13959;SDS011;7052;51.050;3.716;2023-07-20T01:12:07;12.10;;;8.27;;
13959;SDS011;7052;51.050;3.716;2023-07-20T01:14:37;13.80;;;8.57;;
13959;SDS011;7052;51.050;3.716;2023-07-20T01:17:05;14.07;;;7.82;;
13959;SDS011;7052;51.050;3.716;2023-07-20T01:19:32;13.68;;;8.75;;
13959;SDS011;7052;51.050;3.716;2023-07-20T01:22:03;12.70;;;8.38;;
13959;SDS011;7052;51.050;3.716;2023-07-20T01:24:50;11.70;;;7.80;;
13959;SDS011;7052;51.050;3.716;2023-07-20T01:30:35;16.90;;;9.20;;
13959;SDS011;7052;51.050;3.716;2023-07-20T01:33:16;14.02;;;8.75;;
13959;SDS011;7052;51.050;3.716;2023-07-20T01:35:44;13.50;;;8.15;;
13959;SDS011;7052;51.050;3.716;2023-07-20T01:38:15;13.77;;;8.68;;
13959;SDS011;7052;51.050;3.716;2023-07-20T01:40:44;12.32;;;8.82;;
13959;SDS011;7052;51.050;3.716;2023-07-20T01:43:11;11.57;;;8.50;;
13959;SDS011;7052;51.050;3.716;2023-07-20T01:45:39;11.32;;;8.80;;
13959;SDS011;7052;51.050;3.716;2023-07-20T01:48:07;13.55;;;8.57;;
13959;SDS011;7052;51.050;3.716;2023-07-20T01:50:38;10.65;;;8.20;;
13959;SDS011;7052;51.050;3.716;2023-07-20T01:53:13;9.90;;;7.57;;
13959;SDS011;7052;51.050;3.716;2023-07-20T01:55:40;12.50;;;8.52;;
13959;SDS011;7052;51.050;3.716;2023-07-20T01:58:08;13.25;;;8.68;;
13959;SDS011;7052;51.050;3.716;2023-07-20T02:00:36;13.00;;;8.65;;
13959;SDS011;7052;51.050;3.716;2023-07-20T02:03:04;14.15;;;8.35;;
13959;SDS011;7052;51.050;3.716;2023-07-20T02:05:32;15.05;;;8.52;;
13959;SDS011;7052;51.050;3.716;2023-07-20T02:08:02;9.77;;;8.05;;
13959;SDS011;7052;51.050;3.716;2023-07-20T02:10:29;14.80;;;8.82;;
13959;SDS011;7052;51.050;3.716;2023-07-20T02:12:56;10.63;;;8.27;;
13959;SDS011;7052;51.050;3.716;2023-07-20T02:15:23;13.75;;;8.70;;
13959;SDS011;7052;51.050;3.716;2023-07-20T02:17:52;11.77;;;8.88;;
13959;SDS011;7052;51.050;3.716;2023-07-20T02:20:21;13.02;;;8.65;;
13959;SDS011;7052;51.050;3.716;2023-07-20T02:22:47;12.40;;;9.23;;
13959;SDS011;7052;51.050;3.716;2023-07-20T02:25:16;12.13;;;9.52;;
13959;SDS011;7052;51.050;3.716;2023-07-20T02:27:44;16.13;;;10.00;;
13959;SDS011;7052;51.050;3.716;2023-07-20T02:30:11;12.55;;;9.10;;
13959;SDS011;7052;51.050;3.716;2023-07-20T02:32:38;14.38;;;9.30;;
13959;SDS011;7052;51.050;3.716;2023-07-20T02:35:06;14.43;;;9.15;;
13959;SDS011;7052;51.050;3.716;2023-07-20T02:37:33;12.32;;;9.25;;
13959;SDS011;7052;51.050;3.716;2023-07-20T02:40:02;14.27;;;9.23;;
13959;SDS011;7052;51.050;3.716;2023-07-20T02:42:31;13.40;;;9.35;;
13959;SDS011;7052;51.050;3.716;2023-07-20T02:45:07;12.68;;;9.30;;
13959;SDS011;7052;51.050;3.716;2023-07-20T02:47:35;13.80;;;9.00;;
13959;SDS011;7052;51.050;3.716;2023-07-20T02:50:02;13.88;;;9.15;;
13959;SDS011;7052;51.050;3.716;2023-07-20T02:52:30;13.90;;;9.45;;
13959;SDS011;7052;51.050;3.716;2023-07-20T02:54:56;11.43;;;9.23;;
13959;SDS011;7052;51.050;3.716;2023-07-20T02:57:23;13.18;;;9.40;;
13959;SDS011;7052;51.050;3.716;2023-07-20T02:59:52;11.02;;;8.85;;
13959;SDS011;7052;51.050;3.716;2023-07-20T03:02:20;12.13;;;8.93;;
13959;SDS011;7052;51.050;3.716;2023-07-20T03:04:47;12.38;;;9.23;;
13959;SDS011;7052;51.050;3.716;2023-07-20T03:07:15;15.50;;;9.27;;
13959;SDS011;7052;51.050;3.716;2023-07-20T03:09:42;11.00;;;8.73;;
13959;SDS011;7052;51.050;3.716;2023-07-20T03:12:09;14.85;;;9.23;;
13959;SDS011;7052;51.050;3.716;2023-07-20T03:14:36;19.02;;;9.10;;
13959;SDS011;7052;51.050;3.716;2023-07-20T03:17:05;12.40;;;9.18;;
13959;SDS011;7052;51.050;3.716;2023-07-20T03:19:33;12.50;;;9.18;;
13959;SDS011;7052;51.050;3.716;2023-07-20T03:22:01;11.85;;;9.10;;
13959;SDS011;7052;51.050;3.716;2023-07-20T03:24:28;12.88;;;9.80;;
13959;SDS011;7052;51.050;3.716;2023-07-20T03:26:55;13.05;;;8.63;;
13959;SDS011;7052;51.050;3.716;2023-07-20T03:29:22;13.00;;;9.15;;
13959;SDS011;7052;51.050;3.716;2023-07-20T03:31:53;10.65;;;8.30;;
13959;SDS011;7052;51.050;3.716;2023-07-20T03:34:22;12.95;;;9.10;;
13959;SDS011;7052;51.050;3.716;2023-07-20T03:36:49;13.32;;;9.40;;
13959;SDS011;7052;51.050;3.716;2023-07-20T03:39:16;14.23;;;9.32;;
13959;SDS011;7052;51.050;3.716;2023-07-20T03:41:43;11.52;;;8.68;;
13959;SDS011;7052;51.050;3.716;2023-07-20T03:44:10;11.55;;;8.95;;
13959;SDS011;7052;51.050;3.716;2023-07-20T03:46:37;14.15;;;10.27;;
13959;SDS011;7052;51.050;3.716;2023-07-20T03:49:04;10.75;;;8.65;;
13959;SDS011;7052;51.050;3.716;2023-07-20T03:51:35;13.73;;;9.68;;
13959;SDS011;7052;51.050;3.716;2023-07-20T03:54:02;11.90;;;9.20;;
13959;SDS011;7052;51.050;3.716;2023-07-20T03:56:31;14.75;;;9.73;;
13959;SDS011;7052;51.050;3.716;2023-07-20T03:59:01;13.90;;;9.57;;
13959;SDS011;7052;51.050;3.716;2023-07-20T04:01:28;13.70;;;9.40;;
13959;SDS011;7052;51.050;3.716;2023-07-20T04:03:55;13.15;;;9.13;;
13959;SDS011;7052;51.050;3.716;2023-07-20T04:06:23;21.55;;;10.20;;
13959;SDS011;7052;51.050;3.716;2023-07-20T04:08:53;11.93;;;8.90;;
13959;SDS011;7052;51.050;3.716;2023-07-20T04:11:22;14.10;;;9.80;;
13959;SDS011;7052;51.050;3.716;2023-07-20T04:13:49;13.68;;;9.05;;
13959;SDS011;7052;51.050;3.716;2023-07-20T04:16:17;10.38;;;9.32;;
13959;SDS011;7052;51.050;3.716;2023-07-20T04:18:45;11.63;;;9.30;;
13959;SDS011;7052;51.050;3.716;2023-07-20T04:21:13;12.30;;;9.23;;
13959;SDS011;7052;51.050;3.716;2023-07-20T04:23:39;10.35;;;9.27;;
13959;SDS011;7052;51.050;3.716;2023-07-20T04:26:08;11.10;;;9.38;;
13959;SDS011;7052;51.050;3.716;2023-07-20T04:28:37;10.80;;;8.88;;
13959;SDS011;7052;51.050;3.716;2023-07-20T04:31:11;10.10;;;9.10;;
13959;SDS011;7052;51.050;3.716;2023-07-20T04:33:40;12.27;;;9.18;;
13959;SDS011;7052;51.050;3.716;2023-07-20T04:36:10;13.80;;;9.90;;
13959;SDS011;7052;51.050;3.716;2023-07-20T04:38:38;12.45;;;9.73;;
13959;SDS011;7052;51.050;3.716;2023-07-20T04:41:08;12.57;;;9.40;;
13959;SDS011;7052;51.050;3.716;2023-07-20T04:43:37;16.25;;;10.68;;
13959;SDS011;7052;51.050;3.716;2023-07-20T04:46:08;10.15;;;9.00;;
13959;SDS011;7052;51.050;3.716;2023-07-20T04:48:35;9.95;;;8.95;;
13959;SDS011;7052;51.050;3.716;2023-07-20T04:51:02;10.18;;;8.98;;
13959;SDS011;7052;51.050;3.716;2023-07-20T04:53:31;10.60;;;9.32;;
13959;SDS011;7052;51.050;3.716;2023-07-20T04:55:59;21.55;;;10.15;;
13959;SDS011;7052;51.050;3.716;2023-07-20T04:58:27;11.15;;;8.73;;
13959;SDS011;7052;51.050;3.716;2023-07-20T05:00:54;58.15;;;16.27;;
13959;SDS011;7052;51.050;3.716;2023-07-20T05:03:21;16.20;;;9.18;;
13959;SDS011;7052;51.050;3.716;2023-07-20T05:05:55;10.80;;;8.73;;
13959;SDS011;7052;51.050;3.716;2023-07-20T05:08:23;11.18;;;7.88;;
13959;SDS011;7052;51.050;3.716;2023-07-20T05:10:50;15.00;;;8.48;;
13959;SDS011;7052;51.050;3.716;2023-07-20T05:13:18;8.48;;;7.57;;
13959;SDS011;7052;51.050;3.716;2023-07-20T05:15:50;9.73;;;8.40;;
13959;SDS011;7052;51.050;3.716;2023-07-20T05:18:19;8.85;;;7.95;;
13959;SDS011;7052;51.050;3.716;2023-07-20T05:20:47;9.50;;;7.50;;
13959;SDS011;7052;51.050;3.716;2023-07-20T05:23:14;12.63;;;8.20;;
13959;SDS011;7052;51.050;3.716;2023-07-20T05:25:45;8.77;;;7.88;;
13959;SDS011;7052;51.050;3.716;2023-07-20T05:28:12;9.10;;;8.00;;
13959;SDS011;7052;51.050;3.716;2023-07-20T05:30:39;8.05;;;7.03;;
13959;SDS011;7052;51.050;3.716;2023-07-20T05:33:08;10.57;;;7.90;;
13959;SDS011;7052;51.050;3.716;2023-07-20T05:35:37;10.00;;;7.28;;
13959;SDS011;7052;51.050;3.716;2023-07-20T05:38:03;8.40;;;6.75;;
13959;SDS011;7052;51.050;3.716;2023-07-20T05:40:31;8.73;;;7.35;;
13959;SDS011;7052;51.050;3.716;2023-07-20T05:43:04;9.55;;;7.38;;
13959;SDS011;7052;51.050;3.716;2023-07-20T05:45:32;6.88;;;6.13;;
13959;SDS011;7052;51.050;3.716;2023-07-20T05:47:58;7.68;;;6.82;;
13959;SDS011;7052;51.050;3.716;2023-07-20T05:50:27;8.70;;;6.32;;
13959;SDS011;7052;51.050;3.716;2023-07-20T05:52:55;9.68;;;7.25;;
13959;SDS011;7052;51.050;3.716;2023-07-20T05:55:26;8.27;;;7.22;;
13959;SDS011;7052;51.050;3.716;2023-07-20T05:57:53;8.10;;;6.75;;
13959;SDS011;7052;51.050;3.716;2023-07-20T06:00:21;6.68;;;6.00;;
13959;SDS011;7052;51.050;3.716;2023-07-20T06:02:51;9.45;;;6.28;;
13959;SDS011;7052;51.050;3.716;2023-07-20T06:05:20;6.53;;;5.80;;
13959;SDS011;7052;51.050;3.716;2023-07-20T06:07:50;7.15;;;5.72;;
13959;SDS011;7052;51.050;3.716;2023-07-20T06:10:17;7.10;;;5.20;;
13959;SDS011;7052;51.050;3.716;2023-07-20T06:12:45;5.95;;;5.13;;
13959;SDS011;7052;51.050;3.716;2023-07-20T06:15:24;7.57;;;3.90;;
13959;SDS011;7052;51.050;3.716;2023-07-20T06:17:53;4.95;;;4.00;;
13959;SDS011;7052;51.050;3.716;2023-07-20T06:20:21;4.78;;;3.72;;
13959;SDS011;7052;51.050;3.716;2023-07-20T06:22:51;8.43;;;3.63;;
13959;SDS011;7052;51.050;3.716;2023-07-20T06:25:17;4.15;;;3.38;;
13959;SDS011;7052;51.050;3.716;2023-07-20T06:27:45;4.40;;;3.20;;
13959;SDS011;7052;51.050;3.716;2023-07-20T06:30:12;6.72;;;3.58;;
13959;SDS011;7052;51.050;3.716;2023-07-20T06:32:41;7.45;;;3.30;;
13959;SDS011;7052;51.050;3.716;2023-07-20T06:35:07;4.70;;;3.15;;
13959;SDS011;7052;51.050;3.716;2023-07-20T06:37:35;5.50;;;3.15;;
13959;SDS011;7052;51.050;3.716;2023-07-20T06:40:09;4.88;;;2.10;;
13959;SDS011;7052;51.050;3.716;2023-07-20T06:42:37;3.97;;;2.17;;
13959;SDS011;7052;51.050;3.716;2023-07-20T06:45:06;2.47;;;1.80;;
13959;SDS011;7052;51.050;3.716;2023-07-20T06:47:34;2.45;;;1.60;;
13959;SDS011;7052;51.050;3.716;2023-07-20T06:50:01;3.08;;;1.88;;
13959;SDS011;7052;51.050;3.716;2023-07-20T06:52:28;2.35;;;1.70;;
13959;SDS011;7052;51.050;3.716;2023-07-20T06:54:57;3.13;;;1.70;;
13959;SDS011;7052;51.050;3.716;2023-07-20T06:57:26;1.98;;;1.50;;
13959;SDS011;7052;51.050;3.716;2023-07-20T06:59:53;2.42;;;1.70;;
13959;SDS011;7052;51.050;3.716;2023-07-20T07:02:20;3.17;;;1.60;;
13959;SDS011;7052;51.050;3.716;2023-07-20T07:04:48;1.60;;;1.50;;
13959;SDS011;7052;51.050;3.716;2023-07-20T07:07:15;4.32;;;2.00;;
13959;SDS011;7052;51.050;3.716;2023-07-20T07:09:42;1.90;;;1.70;;
13959;SDS011;7052;51.050;3.716;2023-07-20T07:12:09;3.60;;;1.88;;
13959;SDS011;7052;51.050;3.716;2023-07-20T07:14:38;2.92;;;1.60;;
13959;SDS011;7052;51.050;3.716;2023-07-20T07:17:05;1.65;;;1.42;;
13959;SDS011;7052;51.050;3.716;2023-07-20T07:19:32;3.25;;;1.50;;
13959;SDS011;7052;51.050;3.716;2023-07-20T07:22:01;2.00;;;1.80;;
13959;SDS011;7052;51.050;3.716;2023-07-20T07:24:29;2.08;;;1.88;;
13959;SDS011;7052;51.050;3.716;2023-07-20T07:26:58;3.00;;;1.90;;
13959;SDS011;7052;51.050;3.716;2023-07-20T07:29:27;2.88;;;1.80;;
13959;SDS011;7052;51.050;3.716;2023-07-20T07:31:56;2.25;;;1.92;;
13959;SDS011;7052;51.050;3.716;2023-07-20T07:34:24;2.15;;;1.70;;
13959;SDS011;7052;51.050;3.716;2023-07-20T07:36:52;3.47;;;2.20;;
13959;SDS011;7052;51.050;3.716;2023-07-20T07:39:20;4.32;;;2.47;;
13959;SDS011;7052;51.050;3.716;2023-07-20T07:41:55;2.50;;;2.30;;
13959;SDS011;7052;51.050;3.716;2023-07-20T07:44:25;3.25;;;2.30;;
13959;SDS011;7052;51.050;3.716;2023-07-20T07:46:52;3.58;;;2.10;;
13959;SDS011;7052;51.050;3.716;2023-07-20T07:49:21;3.70;;;1.95;;
13959;SDS011;7052;51.050;3.716;2023-07-20T07:51:48;2.72;;;2.17;;
13959;SDS011;7052;51.050;3.716;2023-07-20T07:54:15;2.50;;;2.20;;
13959;SDS011;7052;51.050;3.716;2023-07-20T07:56:44;2.53;;;2.30;;
13959;SDS011;7052;51.050;3.716;2023-07-20T07:59:14;3.25;;;2.45;;
13959;SDS011;7052;51.050;3.716;2023-07-20T08:01:41;3.58;;;2.42;;
13959;SDS011;7052;51.050;3.716;2023-07-20T08:04:09;6.00;;;2.67;;
13959;SDS011;7052;51.050;3.716;2023-07-20T08:06:37;2.03;;;1.83;;
13959;SDS011;7052;51.050;3.716;2023-07-20T08:09:04;3.13;;;2.20;;
13959;SDS011;7052;51.050;3.716;2023-07-20T08:11:33;3.20;;;2.10;;
13959;SDS011;7052;51.050;3.716;2023-07-20T08:14:00;2.50;;;2.08;;
13959;SDS011;7052;51.050;3.716;2023-07-20T08:16:31;2.63;;;2.20;;
13959;SDS011;7052;51.050;3.716;2023-07-20T08:18:59;5.47;;;2.60;;
13959;SDS011;7052;51.050;3.716;2023-07-20T08:21:27;2.53;;;2.33;;
13959;SDS011;7052;51.050;3.716;2023-07-20T08:23:55;5.32;;;2.67;;
13959;SDS011;7052;51.050;3.716;2023-07-20T08:26:22;4.63;;;2.63;;
13959;SDS011;7052;51.050;3.716;2023-07-20T08:28:49;8.45;;;2.90;;
13959;SDS011;7052;51.050;3.716;2023-07-20T08:31:17;4.80;;;2.63;;
13959;SDS011;7052;51.050;3.716;2023-07-20T08:33:44;5.30;;;2.90;;
13959;SDS011;7052;51.050;3.716;2023-07-20T08:36:11;3.55;;;2.40;;
13959;SDS011;7052;51.050;3.716;2023-07-20T08:38:41;3.35;;;2.22;;
13959;SDS011;7052;51.050;3.716;2023-07-20T08:41:10;4.05;;;2.30;;
13959;SDS011;7052;51.050;3.716;2023-07-20T08:43:37;2.60;;;2.15;;
13959;SDS011;7052;51.050;3.716;2023-07-20T08:46:09;8.75;;;3.40;;
13959;SDS011;7052;51.050;3.716;2023-07-20T08:48:39;3.75;;;2.40;;
13959;SDS011;7052;51.050;3.716;2023-07-20T08:51:09;2.75;;;2.03;;
13959;SDS011;7052;51.050;3.716;2023-07-20T08:53:38;2.40;;;2.20;;
13959;SDS011;7052;51.050;3.716;2023-07-20T08:56:05;6.95;;;2.45;;
13959;SDS011;7052;51.050;3.716;2023-07-20T08:58:37;11.13;;;2.78;;
13959;SDS011;7052;51.050;3.716;2023-07-20T09:01:04;4.07;;;2.20;;
13959;SDS011;7052;51.050;3.716;2023-07-20T09:03:32;3.47;;;2.20;;
13959;SDS011;7052;51.050;3.716;2023-07-20T09:06:00;2.22;;;1.80;;
13959;SDS011;7052;51.050;3.716;2023-07-20T09:08:28;7.95;;;2.58;;
13959;SDS011;7052;51.050;3.716;2023-07-20T09:10:55;3.63;;;1.75;;
13959;SDS011;7052;51.050;3.716;2023-07-20T09:13:24;2.78;;;2.25;;
13959;SDS011;7052;51.050;3.716;2023-07-20T09:15:54;2.22;;;2.00;;
13959;SDS011;7052;51.050;3.716;2023-07-20T09:18:24;2.75;;;2.10;;
13959;SDS011;7052;51.050;3.716;2023-07-20T09:20:53;3.28;;;2.30;;
13959;SDS011;7052;51.050;3.716;2023-07-20T09:23:29;4.50;;;2.42;;
13959;SDS011;7052;51.050;3.716;2023-07-20T09:25:57;3.30;;;2.35;;
13959;SDS011;7052;51.050;3.716;2023-07-20T09:28:24;4.18;;;2.60;;
13959;SDS011;7052;51.050;3.716;2023-07-20T09:30:55;3.67;;;2.30;;
13959;SDS011;7052;51.050;3.716;2023-07-20T09:33:24;3.50;;;2.05;;
13959;SDS011;7052;51.050;3.716;2023-07-20T09:35:54;2.63;;;2.40;;
13959;SDS011;7052;51.050;3.716;2023-07-20T09:38:29;2.53;;;1.90;;
13959;SDS011;7052;51.050;3.716;2023-07-20T09:40:56;13.25;;;2.88;;
13959;SDS011;7052;51.050;3.716;2023-07-20T09:43:24;18.35;;;3.42;;
13959;SDS011;7052;51.050;3.716;2023-07-20T09:45:58;9.05;;;2.47;;
13959;SDS011;7052;51.050;3.716;2023-07-20T09:48:27;3.75;;;1.98;;
13959;SDS011;7052;51.050;3.716;2023-07-20T09:50:54;9.60;;;2.55;;
13959;SDS011;7052;51.050;3.716;2023-07-20T09:53:24;2.17;;;1.70;;
13959;SDS011;7052;51.050;3.716;2023-07-20T09:55:53;3.78;;;2.20;;
13959;SDS011;7052;51.050;3.716;2023-07-20T09:58:21;2.75;;;1.80;;
13959;SDS011;7052;51.050;3.716;2023-07-20T10:00:48;9.85;;;2.50;;
13959;SDS011;7052;51.050;3.716;2023-07-20T10:03:28;3.35;;;1.85;;
13959;SDS011;7052;51.050;3.716;2023-07-20T10:06:00;4.13;;;2.53;;
13959;SDS011;7052;51.050;3.716;2023-07-20T10:08:32;2.47;;;1.92;;
13959;SDS011;7052;51.050;3.716;2023-07-20T10:11:05;2.13;;;1.92;;
13959;SDS011;7052;51.050;3.716;2023-07-20T10:13:37;1.70;;;1.55;;
13959;SDS011;7052;51.050;3.716;2023-07-20T10:16:14;2.33;;;1.80;;
13959;SDS011;7052;51.050;3.716;2023-07-20T10:18:53;5.10;;;2.38;;
13959;SDS011;7052;51.050;3.716;2023-07-20T10:21:29;2.58;;;1.70;;
13959;SDS011;7052;51.050;3.716;2023-07-20T10:23:57;2.92;;;1.90;;
13959;SDS011;7052;51.050;3.716;2023-07-20T10:26:27;1.70;;;1.60;;
13959;SDS011;7052;51.050;3.716;2023-07-20T10:28:55;2.83;;;1.80;;
13959;SDS011;7052;51.050;3.716;2023-07-20T10:31:24;2.47;;;1.63;;
13959;SDS011;7052;51.050;3.716;2023-07-20T10:33:55;2.45;;;1.70;;
13959;SDS011;7052;51.050;3.716;2023-07-20T10:36:26;2.30;;;1.50;;
13959;SDS011;7052;51.050;3.716;2023-07-20T10:38:54;1.75;;;1.38;;
13959;SDS011;7052;51.050;3.716;2023-07-20T10:41:28;1.52;;;1.42;;
13959;SDS011;7052;51.050;3.716;2023-07-20T10:43:57;2.03;;;1.60;;
13959;SDS011;7052;51.050;3.716;2023-07-20T10:46:34;3.75;;;1.85;;
13959;SDS011;7052;51.050;3.716;2023-07-20T10:49:09;5.05;;;4.65;;
13959;SDS011;7052;51.050;3.716;2023-07-20T10:51:40;2.08;;;1.52;;
13959;SDS011;7052;51.050;3.716;2023-07-20T10:59:49;2.38;;;1.70;;
13959;SDS011;7052;51.050;3.716;2023-07-20T11:02:17;2.10;;;1.90;;
13959;SDS011;7052;51.050;3.716;2023-07-20T11:04:46;2.72;;;1.48;;
13959;SDS011;7052;51.050;3.716;2023-07-20T11:07:17;2.42;;;1.60;;
13959;SDS011;7052;51.050;3.716;2023-07-20T11:10:13;1.85;;;1.67;;
13959;SDS011;7052;51.050;3.716;2023-07-20T11:12:41;1.63;;;1.50;;
13959;SDS011;7052;51.050;3.716;2023-07-20T11:15:37;1.88;;;1.70;;
13959;SDS011;7052;51.050;3.716;2023-07-20T11:18:13;2.28;;;1.73;;
13959;SDS011;7052;51.050;3.716;2023-07-20T11:20:41;2.35;;;1.80;;
13959;SDS011;7052;51.050;3.716;2023-07-20T11:23:13;2.10;;;1.50;;
13959;SDS011;7052;51.050;3.716;2023-07-20T11:25:40;2.25;;;1.90;;
13959;SDS011;7052;51.050;3.716;2023-07-20T11:28:07;3.00;;;1.70;;
13959;SDS011;7052;51.050;3.716;2023-07-20T11:30:36;4.38;;;2.13;;
13959;SDS011;7052;51.050;3.716;2023-07-20T11:33:04;4.40;;;1.80;;
13959;SDS011;7052;51.050;3.716;2023-07-20T11:35:35;2.40;;;1.90;;
13959;SDS011;7052;51.050;3.716;2023-07-20T11:38:04;8.45;;;2.45;;
13959;SDS011;7052;51.050;3.716;2023-07-20T11:40:34;2.50;;;1.77;;
13959;SDS011;7052;51.050;3.716;2023-07-20T11:43:01;6.95;;;2.15;;
13959;SDS011;7052;51.050;3.716;2023-07-20T11:45:31;2.97;;;2.03;;
13959;SDS011;7052;51.050;3.716;2023-07-20T11:47:58;1.95;;;1.85;;
13959;SDS011;7052;51.050;3.716;2023-07-20T11:50:26;4.63;;;2.55;;
13959;SDS011;7052;51.050;3.716;2023-07-20T11:52:55;3.08;;;2.20;;
13959;SDS011;7052;51.050;3.716;2023-07-20T11:55:24;3.78;;;2.00;;
13959;SDS011;7052;51.050;3.716;2023-07-20T11:58:02;6.95;;;2.63;;
13959;SDS011;7052;51.050;3.716;2023-07-20T12:00:32;2.50;;;2.10;;
13959;SDS011;7052;51.050;3.716;2023-07-20T12:03:00;10.45;;;3.03;;
13959;SDS011;7052;51.050;3.716;2023-07-20T12:05:27;3.75;;;2.38;;
13959;SDS011;7052;51.050;3.716;2023-07-20T12:07:55;2.60;;;2.00;;
13959;SDS011;7052;51.050;3.716;2023-07-20T12:10:26;4.45;;;2.35;;
13959;SDS011;7052;51.050;3.716;2023-07-20T12:13:00;7.57;;;2.65;;
13959;SDS011;7052;51.050;3.716;2023-07-20T12:15:29;2.65;;;2.20;;
13959;SDS011;7052;51.050;3.716;2023-07-20T12:18:03;2.70;;;1.90;;
13959;SDS011;7052;51.050;3.716;2023-07-20T12:20:31;3.45;;;2.30;;
13959;SDS011;7052;51.050;3.716;2023-07-20T12:23:02;5.25;;;2.60;;
13959;SDS011;7052;51.050;3.716;2023-07-20T12:25:42;2.80;;;2.50;;
13959;SDS011;7052;51.050;3.716;2023-07-20T12:28:11;5.00;;;2.30;;
13959;SDS011;7052;51.050;3.716;2023-07-20T12:30:40;3.28;;;2.58;;
13959;SDS011;7052;51.050;3.716;2023-07-20T12:33:10;3.28;;;2.40;;
13959;SDS011;7052;51.050;3.716;2023-07-20T12:35:40;3.38;;;2.47;;
13959;SDS011;7052;51.050;3.716;2023-07-20T12:38:08;2.60;;;2.40;;
13959;SDS011;7052;51.050;3.716;2023-07-20T12:40:35;3.03;;;2.50;;
13959;SDS011;7052;51.050;3.716;2023-07-20T12:43:04;3.88;;;2.25;;
13959;SDS011;7052;51.050;3.716;2023-07-20T12:45:32;3.22;;;2.50;;
13959;SDS011;7052;51.050;3.716;2023-07-20T12:48:00;5.00;;;2.30;;
13959;SDS011;7052;51.050;3.716;2023-07-20T12:50:27;3.05;;;2.00;;
13959;SDS011;7052;51.050;3.716;2023-07-20T12:52:55;2.70;;;2.20;;
13959;SDS011;7052;51.050;3.716;2023-07-20T12:55:23;3.03;;;2.22;;
13959;SDS011;7052;51.050;3.716;2023-07-20T12:57:56;3.63;;;2.30;;
13959;SDS011;7052;51.050;3.716;2023-07-20T13:00:25;3.35;;;2.20;;
13959;SDS011;7052;51.050;3.716;2023-07-20T13:02:53;2.20;;;2.00;;
13959;SDS011;7052;51.050;3.716;2023-07-20T13:05:24;2.33;;;1.90;;
13959;SDS011;7052;51.050;3.716;2023-07-20T13:07:51;2.28;;;1.92;;
13959;SDS011;7052;51.050;3.716;2023-07-20T13:10:25;3.85;;;2.30;;
13959;SDS011;7052;51.050;3.716;2023-07-20T13:12:54;5.45;;;2.63;;
13959;SDS011;7052;51.050;3.716;2023-07-20T13:15:24;4.53;;;2.10;;
13959;SDS011;7052;51.050;3.716;2023-07-20T13:17:57;3.47;;;1.90;;
13959;SDS011;7052;51.050;3.716;2023-07-20T13:20:25;3.67;;;2.13;;
13959;SDS011;7052;51.050;3.716;2023-07-20T13:22:55;2.13;;;1.90;;
13959;SDS011;7052;51.050;3.716;2023-07-20T13:25:24;3.78;;;2.00;;
13959;SDS011;7052;51.050;3.716;2023-07-20T13:27:53;3.30;;;2.08;;
13959;SDS011;7052;51.050;3.716;2023-07-20T13:30:20;2.17;;;1.90;;
13959;SDS011;7052;51.050;3.716;2023-07-20T13:32:55;1.80;;;1.60;;
13959;SDS011;7052;51.050;3.716;2023-07-20T13:35:22;2.58;;;1.63;;
13959;SDS011;7052;51.050;3.716;2023-07-20T13:37:51;2.28;;;1.65;;
13959;SDS011;7052;51.050;3.716;2023-07-20T13:40:22;2.50;;;1.80;;
13959;SDS011;7052;51.050;3.716;2023-07-20T13:42:49;1.90;;;1.70;;
13959;SDS011;7052;51.050;3.716;2023-07-20T13:45:17;2.00;;;1.55;;
13959;SDS011;7052;51.050;3.716;2023-07-20T13:47:46;2.65;;;1.83;;
13959;SDS011;7052;51.050;3.716;2023-07-20T13:50:14;3.35;;;2.00;;
13959;SDS011;7052;51.050;3.716;2023-07-20T13:52:41;3.55;;;1.92;;
13959;SDS011;7052;51.050;3.716;2023-07-20T13:55:08;4.82;;;2.10;;
13959;SDS011;7052;51.050;3.716;2023-07-20T13:57:36;5.57;;;2.03;;
13959;SDS011;7052;51.050;3.716;2023-07-20T14:00:03;5.13;;;2.55;;
13959;SDS011;7052;51.050;3.716;2023-07-20T14:02:33;3.83;;;2.92;;
13959;SDS011;7052;51.050;3.716;2023-07-20T14:05:01;4.10;;;3.70;;
13959;SDS011;7052;51.050;3.716;2023-07-20T14:07:29;4.50;;;3.55;;
13959;SDS011;7052;51.050;3.716;2023-07-20T14:09:57;4.00;;;3.70;;
13959;SDS011;7052;51.050;3.716;2023-07-20T14:12:24;7.95;;;4.10;;
13959;SDS011;7052;51.050;3.716;2023-07-20T14:14:52;5.72;;;3.95;;
13959;SDS011;7052;51.050;3.716;2023-07-20T14:17:21;8.77;;;4.53;;
13959;SDS011;7052;51.050;3.716;2023-07-20T14:19:49;5.85;;;4.50;;
13959;SDS011;7052;51.050;3.716;2023-07-20T14:22:17;7.60;;;4.78;;
13959;SDS011;7052;51.050;3.716;2023-07-20T14:24:49;6.53;;;4.95;;
13959;SDS011;7052;51.050;3.716;2023-07-20T14:27:17;6.05;;;4.68;;
13959;SDS011;7052;51.050;3.716;2023-07-20T14:29:44;5.40;;;4.60;;
13959;SDS011;7052;51.050;3.716;2023-07-20T14:32:11;6.65;;;5.15;;
13959;SDS011;7052;51.050;3.716;2023-07-20T14:34:38;5.90;;;5.40;;
13959;SDS011;7052;51.050;3.716;2023-07-20T14:37:05;5.93;;;5.35;;
13959;SDS011;7052;51.050;3.716;2023-07-20T14:39:34;7.07;;;5.53;;
13959;SDS011;7052;51.050;3.716;2023-07-20T14:42:03;5.88;;;5.25;;
13959;SDS011;7052;51.050;3.716;2023-07-20T14:44:32;6.25;;;5.13;;
13959;SDS011;7052;51.050;3.716;2023-07-20T14:47:01;9.90;;;8.65;;
13959;SDS011;7052;51.050;3.716;2023-07-20T14:49:28;6.15;;;5.55;;
13959;SDS011;7052;51.050;3.716;2023-07-20T14:51:55;6.15;;;5.55;;
13959;SDS011;7052;51.050;3.716;2023-07-20T14:54:22;6.28;;;5.45;;
13959;SDS011;7052;51.050;3.716;2023-07-20T14:56:51;6.13;;;5.53;;
13959;SDS011;7052;51.050;3.716;2023-07-20T14:59:20;7.50;;;6.72;;
13959;SDS011;7052;51.050;3.716;2023-07-20T15:01:47;5.82;;;5.32;;
13959;SDS011;7052;51.050;3.716;2023-07-20T15:04:14;6.25;;;5.75;;
13959;SDS011;7052;51.050;3.716;2023-07-20T15:06:41;6.43;;;5.90;;
13959;SDS011;7052;51.050;3.716;2023-07-20T15:09:09;6.65;;;6.05;;
13959;SDS011;7052;51.050;3.716;2023-07-20T15:11:49;6.32;;;5.72;;
13959;SDS011;7052;51.050;3.716;2023-07-20T15:14:16;6.50;;;5.82;;